Hauptseite
METAR-TAF:

METAR-TAF

Flughäfen :

Čáslav, Tschechien

Breite: 49-56-23N, Länge: 15-22-55E, Höhe: 242 m

Beobachtung

Neuester Wetterbericht von vor 25 Minuten, um 01:30 UTC
Wind 3 kt aus Süd/Südost, variierte zwischen Ost/Südost und Süd/Südwest
Temperatur 3°C
Luftfeuchtigkeit 81%
Luftdruck 1019 hPa
Sichtweite 10 km oder mehr
keine Wolken unter 1500 m und keine Kumulonimbus oder Gewitterwolken

METAR: LKCV 080130Z 15003KT 110V200 CAVOK 03/M00 Q1019 NOSIG RMK BLU BLU

Zeit: 03:55 (01:55 UTC)

Prognose

Neuester Wetterbericht von vor 2 Stunden und 55 Minuten, um 23:00 UTC
Gültige Prognose vom 08 um 00 UTC bis 09 um 00 UTC
Wind 8 kt aus West
Sichtweite 10 km oder mehr
keine Wolken unter 1500 m und keine Kumulonimbus oder Gewitterwolken
Übergehend zu
vom 08 um 16 UTC bis 08 um 18 UTC
Wind 6 kt aus Ost/Südost

TAF: LKCV 072300Z 0800/0900 27008KT CAVOK BECMG 0816/0818 12006KT

Wetterbeobachtungen und Prognosen von mehr als 4000 Flughäfen (METAR und TAF Bericht).

Die verfügbaren Stationen werden durch gelbe und rote Markierungen auf der Karte dargestellt.

Führen Sie die Maus auf sie, um den Namen der Station zu sehen.

Darauf klicken, um die Beobachtung von Wetterbeobachtungen und Prognosen zu sehen.

Um die Karte zu ändern : klicken Sie auf den grünen Tasten mit einem schwarzen Kreuz Zum Vergrößern, auf den grünen Button mit einem Gedankenstrich zu verkleinern, oder auf die grünen Pfeile für benachbarte Karten.


METAR-TAF: